sensor_id;sensor_type;location;lat;lon;timestamp;pressure;altitude;pressure_sealevel;temperature;humidity
59315;BME280;46521;50.160;20.802;2023-07-31T00:10:51;99170.61;;;19.48;66.88
59315;BME280;46521;50.160;20.802;2023-07-31T00:20:52;99168.09;;;19.29;67.35
59315;BME280;46521;50.160;20.802;2023-07-31T00:30:54;99157.18;;;19.19;67.35
59315;BME280;46521;50.160;20.802;2023-07-31T00:40:55;99164.53;;;19.12;67.60
59315;BME280;46521;50.160;20.802;2023-07-31T00:50:57;99161.52;;;19.08;67.72
59315;BME280;46521;50.160;20.802;2023-07-31T01:00:58;99153.84;;;19.00;67.78
59315;BME280;46521;50.160;20.802;2023-07-31T01:11:22;99158.27;;;18.94;67.90
59315;BME280;46521;50.160;20.802;2023-07-31T01:31:36;99164.33;;;18.89;68.19
59315;BME280;46521;50.160;20.802;2023-07-31T01:41:40;99178.27;;;18.68;68.02
59315;BME280;46521;50.160;20.802;2023-07-31T01:51:41;99178.98;;;18.51;68.22
59315;BME280;46521;50.160;20.802;2023-07-31T02:01:43;99170.31;;;18.26;68.32
59315;BME280;46521;50.160;20.802;2023-07-31T02:11:44;99181.42;;;17.99;68.29
59315;BME280;46521;50.160;20.802;2023-07-31T02:21:45;99192.36;;;17.79;68.92
59315;BME280;46521;50.160;20.802;2023-07-31T02:31:47;99200.26;;;17.74;69.10
59315;BME280;46521;50.160;20.802;2023-07-31T02:41:48;99209.41;;;17.66;69.30
59315;BME280;46521;50.160;20.802;2023-07-31T02:51:50;99201.61;;;17.64;69.93
59315;BME280;46521;50.160;20.802;2023-07-31T03:01:51;99206.95;;;17.64;70.20
59315;BME280;46521;50.160;20.802;2023-07-31T03:11:53;99223.09;;;17.58;70.14
59315;BME280;46521;50.160;20.802;2023-07-31T03:21:54;99222.73;;;17.54;70.45
59315;BME280;46521;50.160;20.802;2023-07-31T03:31:55;99242.25;;;17.55;70.94
59315;BME280;46521;50.160;20.802;2023-07-31T03:41:57;99244.26;;;17.59;71.17
59315;BME280;46521;50.160;20.802;2023-07-31T03:51:58;99245.01;;;17.67;71.41
59315;BME280;46521;50.160;20.802;2023-07-31T04:02:00;99255.75;;;17.78;72.07
59315;BME280;46521;50.160;20.802;2023-07-31T04:12:01;99266.45;;;17.78;72.41
59315;BME280;46521;50.160;20.802;2023-07-31T04:22:03;99290.69;;;17.46;73.04
59315;BME280;46521;50.160;20.802;2023-07-31T04:32:05;99306.47;;;17.29;73.88
59315;BME280;46521;50.160;20.802;2023-07-31T04:42:07;99296.08;;;17.21;73.80
59315;BME280;46521;50.160;20.802;2023-07-31T04:52:08;99292.01;;;17.37;74.29
59315;BME280;46521;50.160;20.802;2023-07-31T05:02:12;99304.71;;;17.42;74.35
59315;BME280;46521;50.160;20.802;2023-07-31T05:12:14;99304.06;;;17.65;74.70
59315;BME280;46521;50.160;20.802;2023-07-31T05:22:15;99318.61;;;17.88;75.14
59315;BME280;46521;50.160;20.802;2023-07-31T05:32:17;99330.66;;;18.15;74.95
59315;BME280;46521;50.160;20.802;2023-07-31T05:42:18;99322.39;;;18.47;75.11
59315;BME280;46521;50.160;20.802;2023-07-31T05:52:20;99324.45;;;18.76;74.67
59315;BME280;46521;50.160;20.802;2023-07-31T06:02:21;99336.80;;;18.77;74.81
59315;BME280;46521;50.160;20.802;2023-07-31T06:12:23;99338.50;;;19.60;74.53
59315;BME280;46521;50.160;20.802;2023-07-31T06:22:25;99340.84;;;19.92;73.87
59315;BME280;46521;50.160;20.802;2023-07-31T06:32:27;99338.17;;;20.21;73.11
59315;BME280;46521;50.160;20.802;2023-07-31T06:42:29;99327.45;;;20.09;73.05
59315;BME280;46521;50.160;20.802;2023-07-31T06:52:30;99331.17;;;20.49;72.21
59315;BME280;46521;50.160;20.802;2023-07-31T07:02:32;99341.54;;;20.28;71.29
59315;BME280;46521;50.160;20.802;2023-07-31T07:12:33;99335.54;;;20.38;71.79
59315;BME280;46521;50.160;20.802;2023-07-31T07:22:35;99347.55;;;21.10;71.07
59315;BME280;46521;50.160;20.802;2023-07-31T07:32:36;99346.52;;;21.67;70.35
59315;BME280;46521;50.160;20.802;2023-07-31T07:42:38;99326.11;;;22.16;69.33
59315;BME280;46521;50.160;20.802;2023-07-31T07:52:39;99331.89;;;22.02;68.70
59315;BME280;46521;50.160;20.802;2023-07-31T08:02:41;99315.95;;;22.77;67.44
59315;BME280;46521;50.160;20.802;2023-07-31T08:12:42;99317.23;;;23.02;66.73
59315;BME280;46521;50.160;20.802;2023-07-31T08:22:44;99317.59;;;22.78;66.29
59315;BME280;46521;50.160;20.802;2023-07-31T08:32:45;99318.70;;;23.57;65.58
59315;BME280;46521;50.160;20.802;2023-07-31T08:42:49;99334.38;;;23.61;64.41
59315;BME280;46521;50.160;20.802;2023-07-31T08:52:52;99335.13;;;24.04;63.22
59315;BME280;46521;50.160;20.802;2023-07-31T09:03:08;99334.77;;;24.74;61.46
59315;BME280;46521;50.160;20.802;2023-07-31T09:13:10;99334.58;;;23.97;61.50
59315;BME280;46521;50.160;20.802;2023-07-31T09:23:13;99339.94;;;23.91;61.25
59315;BME280;46521;50.160;20.802;2023-07-31T09:33:16;99337.72;;;23.83;60.47
59315;BME280;46521;50.160;20.802;2023-07-31T09:43:19;99345.72;;;23.63;60.08
59315;BME280;46521;50.160;20.802;2023-07-31T09:53:28;99346.13;;;23.39;60.59
59315;BME280;46521;50.160;20.802;2023-07-31T10:03:34;99347.14;;;23.28;60.25
59315;BME280;46521;50.160;20.802;2023-07-31T10:13:35;99350.97;;;23.04;60.17
59315;BME280;46521;50.160;20.802;2023-07-31T10:23:37;99345.41;;;23.16;59.92
59315;BME280;46521;50.160;20.802;2023-07-31T10:33:40;99337.27;;;23.49;59.42
59315;BME280;46521;50.160;20.802;2023-07-31T10:43:41;99335.91;;;23.99;59.18
59315;BME280;46521;50.160;20.802;2023-07-31T10:53:43;99321.17;;;24.43;58.48
59315;BME280;46521;50.160;20.802;2023-07-31T11:03:47;99303.11;;;25.05;57.58
59315;BME280;46521;50.160;20.802;2023-07-31T11:13:52;99289.97;;;25.69;56.13
59315;BME280;46521;50.160;20.802;2023-07-31T11:23:56;99288.52;;;25.92;55.23
59315;BME280;46521;50.160;20.802;2023-07-31T11:34:05;99277.83;;;26.21;55.27
59315;BME280;46521;50.160;20.802;2023-07-31T11:44:07;99260.61;;;26.41;54.36
59315;BME280;46521;50.160;20.802;2023-07-31T11:54:08;99263.80;;;26.49;53.26
59315;BME280;46521;50.160;20.802;2023-07-31T12:04:10;99259.22;;;26.04;53.09
59315;BME280;46521;50.160;20.802;2023-07-31T12:14:22;99243.53;;;26.01;53.09
59315;BME280;46521;50.160;20.802;2023-07-31T12:24:26;99241.98;;;26.30;52.07
59315;BME280;46521;50.160;20.802;2023-07-31T12:34:27;99229.26;;;26.30;51.42
59315;BME280;46521;50.160;20.802;2023-07-31T12:44:29;99212.73;;;26.26;50.78
59315;BME280;46521;50.160;20.802;2023-07-31T12:54:30;99205.45;;;26.22;49.59
59315;BME280;46521;50.160;20.802;2023-07-31T13:04:32;99195.55;;;26.41;49.54
59315;BME280;46521;50.160;20.802;2023-07-31T13:14:33;99185.32;;;26.33;48.52
59315;BME280;46521;50.160;20.802;2023-07-31T13:24:35;99184.27;;;26.29;48.25
59315;BME280;46521;50.160;20.802;2023-07-31T13:34:36;99167.27;;;25.73;47.99
59315;BME280;46521;50.160;20.802;2023-07-31T13:44:39;99171.86;;;25.28;48.03
59315;BME280;46521;50.160;20.802;2023-07-31T13:54:40;99167.91;;;24.85;48.34
59315;BME280;46521;50.160;20.802;2023-07-31T14:04:44;99149.09;;;25.24;47.57
59315;BME280;46521;50.160;20.802;2023-07-31T14:14:45;99146.08;;;25.41;47.28
59315;BME280;46521;50.160;20.802;2023-07-31T14:24:47;99141.25;;;25.33;47.47
59315;BME280;46521;50.160;20.802;2023-07-31T14:34:48;99144.20;;;25.26;46.82
59315;BME280;46521;50.160;20.802;2023-07-31T14:44:50;99133.41;;;25.31;46.05
59315;BME280;46521;50.160;20.802;2023-07-31T14:54:52;99119.64;;;25.17;46.26
59315;BME280;46521;50.160;20.802;2023-07-31T15:04:53;99121.85;;;25.05;45.54
59315;BME280;46521;50.160;20.802;2023-07-31T15:14:55;99107.52;;;24.99;45.51
59315;BME280;46521;50.160;20.802;2023-07-31T15:24:56;99096.48;;;24.91;45.08
59315;BME280;46521;50.160;20.802;2023-07-31T15:34:58;99103.86;;;24.64;44.73
59315;BME280;46521;50.160;20.802;2023-07-31T15:44:59;99108.19;;;24.60;45.41
59315;BME280;46521;50.160;20.802;2023-07-31T15:55:01;99103.31;;;24.52;44.97
59315;BME280;46521;50.160;20.802;2023-07-31T16:05:02;99079.79;;;24.53;44.92
59315;BME280;46521;50.160;20.802;2023-07-31T16:15:04;99084.41;;;24.42;45.33
59315;BME280;46521;50.160;20.802;2023-07-31T16:25:06;99082.31;;;24.03;45.69
59315;BME280;46521;50.160;20.802;2023-07-31T16:35:08;99084.97;;;23.67;46.33
59315;BME280;46521;50.160;20.802;2023-07-31T16:45:10;99084.68;;;23.58;47.04
59315;BME280;46521;50.160;20.802;2023-07-31T16:55:11;99083.84;;;23.52;47.47
59315;BME280;46521;50.160;20.802;2023-07-31T17:05:13;99077.92;;;23.45;47.94
59315;BME280;46521;50.160;20.802;2023-07-31T17:15:14;99074.13;;;23.41;48.59
59315;BME280;46521;50.160;20.802;2023-07-31T17:25:18;99075.72;;;23.27;48.82
59315;BME280;46521;50.160;20.802;2023-07-31T17:35:20;99089.69;;;23.13;49.30
59315;BME280;46521;50.160;20.802;2023-07-31T17:45:21;99086.36;;;22.96;49.99
59315;BME280;46521;50.160;20.802;2023-07-31T17:55:23;99090.34;;;22.78;50.57
59315;BME280;46521;50.160;20.802;2023-07-31T18:05:24;99108.88;;;22.69;51.17
59315;BME280;46521;50.160;20.802;2023-07-31T18:15:26;99116.33;;;22.52;52.13
59315;BME280;46521;50.160;20.802;2023-07-31T18:25:27;99133.22;;;22.37;52.64
59315;BME280;46521;50.160;20.802;2023-07-31T18:35:29;99135.95;;;22.14;53.39
59315;BME280;46521;50.160;20.802;2023-07-31T18:45:32;99144.44;;;21.96;53.70
59315;BME280;46521;50.160;20.802;2023-07-31T18:55:33;99146.36;;;21.73;54.19
59315;BME280;46521;50.160;20.802;2023-07-31T19:05:35;99154.84;;;21.60;54.47
59315;BME280;46521;50.160;20.802;2023-07-31T19:15:36;99150.56;;;21.42;54.86
59315;BME280;46521;50.160;20.802;2023-07-31T19:25:38;99152.52;;;21.02;55.15
59315;BME280;46521;50.160;20.802;2023-07-31T19:35:40;99146.28;;;20.80;55.41
59315;BME280;46521;50.160;20.802;2023-07-31T19:45:41;99153.73;;;20.73;56.05
59315;BME280;46521;50.160;20.802;2023-07-31T19:55:43;99158.03;;;20.57;56.45
59315;BME280;46521;50.160;20.802;2023-07-31T20:05:44;99173.41;;;20.27;57.47
59315;BME280;46521;50.160;20.802;2023-07-31T20:15:49;99167.48;;;20.25;57.77
59315;BME280;46521;50.160;20.802;2023-07-31T20:25:51;99156.64;;;20.20;58.05
59315;BME280;46521;50.160;20.802;2023-07-31T20:35:52;99149.72;;;20.07;58.12
59315;BME280;46521;50.160;20.802;2023-07-31T20:45:54;99130.39;;;19.76;58.49
59315;BME280;46521;50.160;20.802;2023-07-31T20:55:55;99105.81;;;19.68;58.46
59315;BME280;46521;50.160;20.802;2023-07-31T21:05:57;99107.05;;;19.48;58.68
59315;BME280;46521;50.160;20.802;2023-07-31T21:16:00;99110.60;;;19.37;59.00
59315;BME280;46521;50.160;20.802;2023-07-31T21:26:02;99102.00;;;19.35;59.56
59315;BME280;46521;50.160;20.802;2023-07-31T21:36:04;99093.09;;;19.17;59.41
59315;BME280;46521;50.160;20.802;2023-07-31T21:46:06;99093.58;;;19.02;60.17
59315;BME280;46521;50.160;20.802;2023-07-31T21:56:07;99077.31;;;18.92;59.92
59315;BME280;46521;50.160;20.802;2023-07-31T22:06:09;99060.55;;;18.73;60.00
59315;BME280;46521;50.160;20.802;2023-07-31T22:16:10;99049.61;;;18.63;60.14
59315;BME280;46521;50.160;20.802;2023-07-31T22:26:12;99040.88;;;18.55;60.53
59315;BME280;46521;50.160;20.802;2023-07-31T22:36:13;99028.09;;;18.58;60.92
59315;BME280;46521;50.160;20.802;2023-07-31T22:46:15;99030.30;;;18.49;60.95
59315;BME280;46521;50.160;20.802;2023-07-31T22:56:16;99019.73;;;18.42;61.37
59315;BME280;46521;50.160;20.802;2023-07-31T23:06:18;99015.67;;;18.28;61.63
59315;BME280;46521;50.160;20.802;2023-07-31T23:16:19;99004.05;;;18.10;61.75
59315;BME280;46521;50.160;20.802;2023-07-31T23:26:21;98999.02;;;18.02;61.89
59315;BME280;46521;50.160;20.802;2023-07-31T23:36:23;98994.60;;;17.96;61.94
59315;BME280;46521;50.160;20.802;2023-07-31T23:46:24;98990.18;;;17.90;62.20
